Time;durP1;ratioP1;P1;durP2;ratioP2;P2;SDS_P1;SDS_P2;PMS_P1;PMS_P2;Temp;Humidity;BMP_temperature;BMP_pressure;BME280_temperature;BME280_humidity;BME280_pressure;Samples;Min_cycle;Max_cycle;Signal;HPM_P1;HPM_P2
2022/07/04 00:00:20;;;;;;;2.15;1.95;;;;;;;19.70;75.08;95983.09;5080498;28;20020;-66
2022/07/04 00:02:46;;;;;;;2.90;2.38;;;;;;;19.79;74.24;95981.13;5079238;28;20520;-66
2022/07/04 00:05:12;;;;;;;2.53;2.20;;;;;;;19.83;73.73;95981.56;5089666;28;20509;-66
2022/07/04 00:07:39;;;;;;;2.60;2.05;;;;;;;19.87;73.79;95980.16;5087070;28;20027;-67
2022/07/04 00:10:06;;;;;;;4.65;2.40;;;;;;;19.76;74.67;95984.97;5084292;28;20398;-66
2022/07/04 00:12:31;;;;;;;4.75;2.00;;;;;;;19.80;73.80;95990.78;5088444;28;20387;-66
2022/07/04 00:14:56;;;;;;;2.47;2.30;;;;;;;19.87;73.02;95998.84;5082143;28;20035;-67
2022/07/04 00:17:22;;;;;;;2.88;2.40;;;;;;;19.84;73.97;95994.72;5087579;28;20028;-67
2022/07/04 00:19:47;;;;;;;2.53;2.17;;;;;;;19.89;72.61;96000.31;5082035;28;20020;-66
2022/07/04 00:22:13;;;;;;;2.95;2.35;;;;;;;19.91;72.32;96002.81;5082135;28;20031;-66
2022/07/04 00:24:38;;;;;;;3.13;2.33;;;;;;;19.86;72.68;96007.88;5081335;28;20024;-66
2022/07/04 00:27:04;;;;;;;2.95;2.15;;;;;;;19.86;72.48;96002.53;5082414;28;20036;-66
2022/07/04 00:29:29;;;;;;;3.25;2.13;;;;;;;19.86;72.52;96013.22;5087708;28;20482;-67
2022/07/04 00:31:55;;;;;;;2.92;2.50;;;;;;;19.81;72.87;96019.13;5083744;28;20035;-67
2022/07/04 00:34:21;;;;;;;2.70;2.30;;;;;;;19.73;73.60;96016.63;5081234;28;20032;-66
2022/07/04 00:36:46;;;;;;;2.33;2.17;;;;;;;19.74;73.72;96015.59;5088944;28;20420;-66
2022/07/04 00:39:11;;;;;;;4.43;2.20;;;;;;;19.66;75.47;96005.88;5083394;28;20031;-67
2022/07/04 00:41:37;;;;;;;4.35;2.15;;;;;;;19.58;77.36;96000.66;5072227;28;20392;-66
2022/07/04 00:44:07;;;;;;;2.90;2.17;;;;;;;19.52;76.08;95999.56;5078687;28;20096;-66
2022/07/04 00:46:33;;;;;;;2.40;2.20;;;;;;;19.45;76.80;95991.50;5078351;28;20028;-66
2022/07/04 00:48:59;;;;;;;2.55;2.10;;;;;;;19.40;77.16;95985.91;5078312;28;20082;-67
2022/07/04 00:51:25;;;;;;;2.47;2.10;;;;;;;19.36;77.15;95989.97;5088330;28;20024;-66
2022/07/04 00:53:53;;;;;;;4.75;2.17;;;;;;;19.34;76.95;95986.66;5080787;28;20102;-66
2022/07/04 00:56:20;;;;;;;4.75;2.40;;;;;;;19.29;76.89;95965.03;5091113;28;20048;-67
2022/07/04 00:58:45;;;;;;;5.38;1.98;;;;;;;19.20;76.62;95975.00;5078994;28;20047;-66
2022/07/04 01:01:11;;;;;;;3.55;2.35;;;;;;;19.15;76.52;95986.28;5092278;28;20032;-66
2022/07/04 01:03:36;;;;;;;5.70;2.40;;;;;;;19.13;76.32;95996.31;5081597;28;20067;-66
2022/07/04 01:06:03;;;;;;;2.00;1.90;;;;;;;19.09;76.35;96002.22;5087760;28;20024;-67
2022/07/04 01:08:28;;;;;;;3.00;2.13;;;;;;;19.02;76.36;96012.81;5075597;28;20077;-66
2022/07/04 01:10:54;;;;;;;3.92;2.17;;;;;;;19.00;77.74;96009.50;5061217;28;20032;-66
2022/07/04 01:13:23;;;;;;;2.50;2.30;;;;;;;18.98;77.30;96011.50;5080791;28;20032;-66
2022/07/04 01:15:50;;;;;;;2.38;2.17;;;;;;;18.97;77.06;96012.50;5085924;28;20504;-66
2022/07/04 01:18:16;;;;;;;4.82;2.40;;;;;;;18.99;76.40;96039.84;5086429;28;20024;-67
2022/07/04 01:20:42;;;;;;;2.72;2.38;;;;;;;19.01;76.19;96046.66;5091049;28;20028;-66
2022/07/04 01:23:08;;;;;;;2.88;2.35;;;;;;;18.89;77.42;96046.25;5080385;28;20084;-66
2022/07/04 01:25:33;;;;;;;2.35;2.20;;;;;;;18.86;77.31;96053.81;5083693;28;20031;-66
2022/07/04 01:28:00;;;;;;;2.20;2.10;;;;;;;18.89;76.97;96058.78;5093419;28;20028;-66
2022/07/04 01:30:26;;;;;;;2.60;2.40;;;;;;;18.89;77.52;96056.94;5080114;28;20032;-67
2022/07/04 01:32:51;;;;;;;5.38;2.47;;;;;;;18.90;77.36;96055.09;5079888;28;20025;-66
2022/07/04 01:35:17;;;;;;;5.97;2.28;;;;;;;18.94;76.50;96052.91;5080340;28;20506;-66
2022/07/04 01:37:42;;;;;;;4.15;2.17;;;;;;;18.99;75.82;96054.00;5077904;28;20033;-66
2022/07/04 01:40:08;;;;;;;2.53;2.33;;;;;;;19.03;75.91;96051.81;5079351;28;20115;-67
2022/07/04 01:42:34;;;;;;;5.22;2.80;;;;;;;19.06;75.55;96055.94;5080535;28;20024;-66
2022/07/04 01:44:59;;;;;;;2.42;2.25;;;;;;;18.93;76.13;96051.25;5081105;28;20103;-66
2022/07/04 01:47:25;;;;;;;2.33;2.13;;;;;;;18.89;76.12;96051.59;5077227;28;20398;-66
2022/07/04 01:49:50;;;;;;;5.28;2.42;;;;;;;18.93;75.96;96056.59;5083606;28;20028;-66
2022/07/04 01:52:15;;;;;;;2.35;2.15;;;;;;;18.95;76.14;96055.38;5092403;28;20031;-67
2022/07/04 01:54:41;;;;;;;2.72;2.42;;;;;;;18.98;76.12;96054.19;5093116;28;20051;-66
2022/07/04 01:57:07;;;;;;;3.72;2.20;;;;;;;18.93;76.19;96036.06;5084688;28;20115;-66
2022/07/04 02:02:17;;;;;;;2.55;2.35;;;;;;;18.86;76.31;96035.97;5085780;28;20093;-67
2022/07/04 02:04:42;;;;;;;3.88;2.20;;;;;;;18.95;76.10;96033.22;5084998;28;20020;-67
2022/07/04 02:07:08;;;;;;;8.57;2.67;;;;;;;18.94;76.08;96020.88;5092727;28;20031;-66
2022/07/04 02:09:33;;;;;;;5.72;2.28;;;;;;;18.99;75.80;96019.31;5092570;28;20030;-67
2022/07/04 02:14:43;;;;;;;5.38;2.30;;;;;;;19.05;75.61;96012.41;5106167;28;20159;-67
2022/07/04 02:17:09;;;;;;;4.68;2.20;;;;;;;19.05;75.52;96015.09;5102313;28;20410;-66
2022/07/04 02:19:35;;;;;;;2.47;2.22;;;;;;;19.03;75.63;96014.44;5106576;28;20111;-67
2022/07/04 02:22:00;;;;;;;3.28;2.97;;;;;;;19.02;76.28;96018.13;5112914;28;20015;-67
2022/07/04 02:24:25;;;;;;;5.03;2.50;;;;;;;19.01;76.80;96012.00;5099125;28;20042;-66
2022/07/04 02:26:51;;;;;;;3.22;2.70;;;;;;;19.03;76.47;96011.78;5084284;28;20024;-67
2022/07/04 02:29:16;;;;;;;2.65;2.50;;;;;;;19.08;76.31;96006.72;5104376;28;20110;-66
2022/07/04 02:31:41;;;;;;;2.30;2.10;;;;;;;19.13;75.80;96012.31;5094329;28;20024;-66
2022/07/04 02:34:07;;;;;;;6.72;4.18;;;;;;;19.18;75.61;96017.91;5112548;28;20047;-66
2022/07/04 02:36:32;;;;;;;3.90;2.45;;;;;;;19.24;74.64;96016.34;5112710;28;20084;-67
2022/07/04 02:38:58;;;;;;;5.05;2.05;;;;;;;19.24;74.82;96010.16;5112369;28;20031;-66
2022/07/04 02:41:23;;;;;;;3.47;2.10;;;;;;;19.24;74.75;96015.50;5103250;28;20058;-66
2022/07/04 02:43:48;;;;;;;7.70;2.58;;;;;;;19.29;74.67;96013.09;5096368;28;20024;-66
2022/07/04 02:46:14;;;;;;;3.85;2.13;;;;;;;19.30;74.86;95999.56;5112758;28;20035;-67
2022/07/04 02:48:39;;;;;;;4.88;2.50;;;;;;;19.29;75.88;96019.28;5112484;28;20037;-67
2022/07/04 02:51:04;;;;;;;5.05;2.80;;;;;;;19.24;76.97;96012.84;5112213;28;20058;-66
2022/07/04 02:53:30;;;;;;;3.28;2.40;;;;;;;19.16;76.95;96013.78;5112394;28;20023;-67
2022/07/04 02:55:55;;;;;;;2.97;2.55;;;;;;;19.01;78.66;96012.00;5111939;28;20020;-66
2022/07/04 02:58:20;;;;;;;4.90;2.10;;;;;;;18.92;77.73;95996.25;5112289;28;20481;-67
2022/07/04 03:00:46;;;;;;;2.40;2.20;;;;;;;18.81;77.69;95984.22;5110940;28;20031;-66
2022/07/04 03:03:11;;;;;;;4.00;2.60;;;;;;;18.73;77.86;95977.94;5112208;28;20019;-66
2022/07/04 03:05:37;;;;;;;2.33;2.10;;;;;;;18.70;77.03;95975.66;5109296;28;20027;-67
2022/07/04 03:08:03;;;;;;;2.42;2.20;;;;;;;18.71;76.76;95981.84;5095620;28;20050;-67
2022/07/04 03:10:28;;;;;;;5.88;2.20;;;;;;;18.65;77.93;95986.06;5111967;28;20063;-66
2022/07/04 03:12:53;;;;;;;3.08;2.30;;;;;;;18.61;77.72;95990.94;5099420;28;20028;-66
2022/07/04 03:15:19;;;;;;;2.17;2.00;;;;;;;18.69;76.92;95992.69;5110057;28;20055;-67
2022/07/04 03:17:44;;;;;;;3.83;2.70;;;;;;;18.70;77.00;95996.19;5111883;28;20027;-67
2022/07/04 03:20:10;;;;;;;3.30;2.28;;;;;;;18.69;77.53;95987.34;5111866;28;20604;-67
2022/07/04 03:22:35;;;;;;;2.58;2.30;;;;;;;18.69;77.79;95989.19;5111955;28;20015;-67
2022/07/04 03:25:00;;;;;;;2.35;2.15;;;;;;;18.66;78.02;95986.88;5111621;28;20027;-66
2022/07/04 03:27:26;;;;;;;2.70;2.50;;;;;;;18.66;78.41;95993.06;5088679;28;20115;-67
2022/07/04 03:29:51;;;;;;;6.03;2.60;;;;;;;18.69;78.35;96005.19;5103327;28;20398;-66
2022/07/04 03:32:16;;;;;;;4.97;2.55;;;;;;;18.69;78.13;96002.53;5092302;28;20023;-66
2022/07/04 03:34:42;;;;;;;3.83;2.63;;;;;;;18.76;77.58;95988.25;5089005;28;20839;-66
2022/07/04 03:37:07;;;;;;;4.32;2.35;;;;;;;18.82;77.46;95985.88;5093550;28;20469;-67
2022/07/04 03:39:32;;;;;;;2.40;2.20;;;;;;;18.88;78.15;95983.25;5095240;28;20028;-66
2022/07/04 03:41:58;;;;;;;2.45;2.15;;;;;;;18.92;77.95;95985.56;5097382;28;20027;-65
2022/07/04 03:44:23;;;;;;;11.68;2.97;;;;;;;18.95;77.72;95985.19;5109099;28;20020;-67
2022/07/04 03:46:49;;;;;;;3.45;2.58;;;;;;;18.95;78.21;95978.00;5097855;28;20035;-67
2022/07/04 03:49:14;;;;;;;2.47;2.28;;;;;;;18.93;78.23;95980.03;5108471;28;20027;-67
2022/07/04 03:51:40;;;;;;;3.03;2.47;;;;;;;18.95;77.08;95996.69;5110101;28;20019;-67
2022/07/04 03:54:05;;;;;;;2.90;2.42;;;;;;;19.00;77.33;95994.28;5105601;28;20031;-67
2022/07/04 03:56:30;;;;;;;2.45;2.33;;;;;;;19.03;76.78;95999.28;5091413;28;20047;-66
2022/07/04 03:58:56;;;;;;;3.97;2.40;;;;;;;18.99;76.91;95997.16;5076069;28;20103;-67
2022/07/04 04:01:21;;;;;;;2.55;2.38;;;;;;;18.88;76.88;95996.59;5081381;28;20431;-67
2022/07/04 04:06:30;;;;;;;3.90;2.30;;;;;;;18.88;77.38;96001.94;5089575;28;20036;-67
2022/07/04 04:08:56;;;;;;;2.40;2.20;;;;;;;18.88;76.66;95996.59;5090206;28;20024;-67
2022/07/04 04:11:22;;;;;;;2.47;2.28;;;;;;;18.92;76.67;95998.91;5090700;28;20479;-66
2022/07/04 04:13:48;;;;;;;3.33;2.30;;;;;;;18.93;76.65;96005.91;5095321;28;20142;-67
2022/07/04 04:16:13;;;;;;;6.90;2.50;;;;;;;18.96;76.46;96008.19;5109027;28;20028;-67
2022/07/04 04:18:38;;;;;;;2.33;2.03;;;;;;;19.00;75.97;96022.84;5090289;28;20044;-67
2022/07/04 04:21:04;;;;;;;2.40;2.20;;;;;;;18.98;76.35;96011.50;5096011;28;20112;-67
2022/07/04 04:23:30;;;;;;;3.50;2.50;;;;;;;18.93;76.68;96027.25;5085558;28;20439;-67
2022/07/04 04:25:56;;;;;;;4.65;2.50;;;;;;;18.83;77.25;96039.00;5087589;28;20032;-67
2022/07/04 04:28:22;;;;;;;2.63;2.42;;;;;;;18.83;76.72;96044.34;5083682;28;20534;-68
2022/07/04 04:30:48;;;;;;;2.33;2.22;;;;;;;18.79;77.21;96045.72;5088694;28;20539;-67
2022/07/04 04:33:13;;;;;;;7.57;2.58;;;;;;;18.80;77.26;96060.72;5090183;28;20115;-68
2022/07/04 04:35:39;;;;;;;3.00;2.25;;;;;;;18.84;76.93;96064.66;5090229;28;20022;-67
2022/07/04 04:38:04;;;;;;;5.63;2.22;;;;;;;18.82;77.09;96066.69;5089920;28;20024;-68
2022/07/04 04:40:30;;;;;;;2.85;2.40;;;;;;;18.81;77.30;96064.22;5088492;28;20019;-67
2022/07/04 04:42:55;;;;;;;2.65;2.08;;;;;;;18.79;77.92;96061.72;5089378;28;20552;-67
2022/07/04 04:45:21;;;;;;;3.53;2.55;;;;;;;18.82;77.75;96065.88;5087970;28;20992;-67
2022/07/04 04:47:47;;;;;;;4.35;2.60;;;;;;;18.85;77.70;96063.66;5088797;28;20028;-67
2022/07/04 04:50:14;;;;;;;2.50;2.20;;;;;;;18.83;78.24;96065.69;5080818;28;20407;-67
2022/07/04 04:52:40;;;;;;;4.40;2.20;;;;;;;18.85;78.36;96065.50;5088410;28;20024;-67
2022/07/04 04:55:06;;;;;;;7.43;2.60;;;;;;;18.91;77.35;96078.09;5089936;28;20016;-67
2022/07/04 04:57:32;;;;;;;2.85;2.35;;;;;;;18.90;77.47;96073.78;5087488;28;20040;-67
2022/07/04 04:59:57;;;;;;;3.75;2.60;;;;;;;18.84;77.92;96071.84;5090253;28;20107;-67
2022/07/04 05:02:22;;;;;;;3.00;2.70;;;;;;;18.78;78.75;96076.09;5089742;28;20028;-67
2022/07/04 05:04:48;;;;;;;3.92;2.60;;;;;;;18.73;78.74;96070.47;5079250;28;20040;-67
2022/07/04 05:07:13;;;;;;;3.20;2.50;;;;;;;18.78;79.21;96069.91;5079390;28;20445;-67
2022/07/04 05:09:39;;;;;;;3.17;2.55;;;;;;;18.81;78.60;96074.91;5089484;28;20028;-68
2022/07/04 05:12:05;;;;;;;2.95;2.60;;;;;;;18.86;78.27;96078.63;5089046;28;20016;-67
2022/07/04 05:14:30;;;;;;;3.25;2.40;;;;;;;18.88;78.02;96068.63;5101600;28;20046;-67
2022/07/04 05:16:56;;;;;;;11.75;2.80;;;;;;;18.89;78.34;96074.78;5095826;28;20116;-67
2022/07/04 05:19:22;;;;;;;6.10;2.50;;;;;;;18.85;78.25;96078.84;5076095;28;20036;-67
2022/07/04 05:21:47;;;;;;;3.63;2.60;;;;;;;18.88;79.07;96071.28;5077140;28;20025;-67
2022/07/04 05:24:12;;;;;;;2.25;2.13;;;;;;;18.84;79.12;96069.19;5087999;28;20103;-67
2022/07/04 05:26:38;;;;;;;5.95;2.88;;;;;;;18.82;79.43;96076.56;5082629;28;20024;-67
2022/07/04 05:29:03;;;;;;;2.65;2.45;;;;;;;18.84;79.76;96083.34;5093114;28;20027;-67
2022/07/04 05:31:29;;;;;;;5.82;2.95;;;;;;;18.95;79.48;96086.56;5084270;28;20403;-67
2022/07/04 05:33:55;;;;;;;2.58;2.38;;;;;;;19.08;79.87;96081.41;5093223;28;20153;-67
2022/07/04 05:36:22;;;;;;;3.55;2.42;;;;;;;19.27;78.43;96084.53;5093538;28;20082;-67
2022/07/04 05:38:47;;;;;;;2.78;2.58;;;;;;;19.49;77.93;96080.06;5091797;28;20043;-67
2022/07/04 05:41:13;;;;;;;2.97;2.65;;;;;;;19.66;77.24;96077.97;5087713;28;20032;-67
2022/07/04 05:43:38;;;;;;;6.57;3.15;;;;;;;19.84;77.59;96072.19;5081753;28;20029;-67
2022/07/04 05:46:04;;;;;;;7.80;3.03;;;;;;;19.88;77.49;96070.78;5082637;28;20024;-67
2022/07/04 05:48:29;;;;;;;3.78;2.40;;;;;;;20.00;77.05;96059.63;5108664;28;20069;-67
2022/07/04 05:50:55;;;;;;;2.92;2.60;;;;;;;20.08;77.60;96064.81;5093988;28;20024;-68
2022/07/04 05:53:20;;;;;;;6.22;2.90;;;;;;;20.14;76.24;96058.72;5084144;28;20059;-69
2022/07/04 05:55:45;;;;;;;7.82;2.97;;;;;;;20.12;76.06;96063.44;5081050;28;20435;-68
2022/07/04 05:58:11;;;;;;;5.90;3.05;;;;;;;20.15;75.62;96065.72;5093157;28;20031;-69
2022/07/04 06:00:39;;;;;;;4.43;2.50;;;;;;;20.06;75.20;96060.69;5092841;28;20099;-68
2022/07/04 06:03:05;;;;;;;8.38;3.28;;;;;;;19.99;76.28;96056.09;5090303;28;20112;-67
2022/07/04 06:05:30;;;;;;;5.72;3.17;;;;;;;19.95;76.81;96054.03;5092757;28;20457;-69
2022/07/04 06:07:56;;;;;;;2.78;2.58;;;;;;;19.98;76.13;96051.78;5092246;28;20043;-70
2022/07/04 06:10:22;;;;;;;4.10;2.80;;;;;;;20.04;76.24;96044.84;5107007;28;20019;-76
2022/07/04 06:12:47;;;;;;;3.13;2.45;;;;;;;20.01;77.10;96040.72;5107066;28;20094;-73
2022/07/04 06:15:12;;;;;;;8.35;2.88;;;;;;;19.94;77.39;96045.16;5095454;28;20034;-73
2022/07/04 06:17:38;;;;;;;3.30;2.72;;;;;;;19.93;78.76;96043.53;5090536;28;20035;-69
2022/07/04 06:20:05;;;;;;;7.75;2.63;;;;;;;20.09;78.02;96049.63;5106694;28;20098;-73
2022/07/04 06:22:45;;;;;;;4.13;2.80;;;;;;;20.27;76.27;96036.59;5090015;28;20071;-70
2022/07/04 06:25:16;;;;;;;6.20;2.78;;;;;;;20.38;75.92;96029.06;5086984;28;20057;-69
2022/07/04 06:27:42;;;;;;;5.63;3.50;;;;;;;20.51;75.77;96022.97;5079864;28;20439;-72
2022/07/04 06:30:09;;;;;;;3.35;3.00;;;;;;;20.63;75.13;96028.59;5089398;28;20035;-71
2022/07/04 06:32:51;;;;;;;3.53;2.50;;;;;;;20.63;75.21;96015.22;5083260;28;20020;-72
2022/07/04 06:38:04;;;;;;;3.38;2.78;;;;;;;21.16;73.59;96028.03;5088920;28;20054;-72
2022/07/04 06:40:29;;;;;;;3.50;2.50;;;;;;;21.66;71.31;96019.75;5090163;28;20032;-71
2022/07/04 06:42:55;;;;;;;5.05;2.42;;;;;;;22.18;69.62;96009.25;5072145;28;20031;-71
2022/07/04 06:45:20;;;;;;;3.80;2.50;;;;;;;22.41;68.37;96013.34;5082160;28;20028;-71
2022/07/04 06:47:45;;;;;;;3.08;2.15;;;;;;;22.84;67.81;96003.94;5082578;28;20036;-72
2022/07/04 06:50:11;;;;;;;2.65;2.45;;;;;;;22.89;65.65;96009.53;5089760;28;20735;-72
2022/07/04 06:52:37;;;;;;;2.17;2.00;;;;;;;22.75;65.20;96005.22;5104174;28;20020;-71
2022/07/04 06:55:02;;;;;;;4.68;2.45;;;;;;;22.50;67.16;96007.78;5101738;28;20020;-72
2022/07/04 06:57:28;;;;;;;3.78;2.38;;;;;;;22.43;67.47;96005.06;5107650;28;20051;-72
2022/07/04 06:59:53;;;;;;;3.35;2.63;;;;;;;22.31;67.55;96010.25;5103881;28;20019;-72
2022/07/04 07:02:18;;;;;;;4.03;2.50;;;;;;;22.58;67.53;96012.94;5109309;28;20028;-73
2022/07/04 07:04:44;;;;;;;3.00;2.38;;;;;;;22.54;67.27;96012.50;5089605;28;20130;-72
2022/07/04 07:07:09;;;;;;;2.90;2.40;;;;;;;22.42;65.50;96014.97;5088420;28;20038;-73
2022/07/04 07:09:35;;;;;;;2.95;2.08;;;;;;;22.67;66.12;96011.66;5105748;28;20403;-74
2022/07/04 07:12:01;;;;;;;2.97;2.33;;;;;;;22.79;66.02;96009.13;5091090;28;20060;-74
2022/07/04 07:14:26;;;;;;;3.45;2.25;;;;;;;22.91;64.83;96016.53;5097792;28;20406;-74
2022/07/04 07:16:52;;;;;;;2.40;2.20;;;;;;;23.04;65.59;96011.09;5081810;28;20033;-74
2022/07/04 07:19:17;;;;;;;2.40;2.10;;;;;;;22.91;64.99;96022.72;5083139;28;20503;-74
2022/07/04 07:21:42;;;;;;;4.38;2.28;;;;;;;23.43;63.86;96020.03;5074776;28;20037;-74
2022/07/04 07:24:08;;;;;;;4.13;2.10;;;;;;;24.06;62.84;96022.13;5085577;28;20103;-74
2022/07/04 07:26:33;;;;;;;2.60;2.38;;;;;;;24.46;61.06;96016.38;5091338;28;20030;-74
2022/07/04 07:28:59;;;;;;;2.30;2.20;;;;;;;24.47;59.94;96023.41;5091402;28;20464;-75
2022/07/04 07:31:24;;;;;;;3.50;1.98;;;;;;;24.73;58.52;96013.41;5090412;28;20028;-74
2022/07/04 07:33:49;;;;;;;2.97;1.92;;;;;;;25.23;56.67;96012.44;5084759;28;20718;-75
2022/07/04 07:36:15;;;;;;;2.38;2.17;;;;;;;25.41;56.38;96005.34;5084431;28;20123;-75
2022/07/04 07:38:40;;;;;;;1.98;1.88;;;;;;;25.09;56.99;96011.78;5092974;28;20025;-74
2022/07/04 07:41:09;;;;;;;2.75;2.03;;;;;;;25.34;56.56;96010.00;5086180;28;20038;-75
2022/07/04 07:43:35;;;;;;;5.30;2.35;;;;;;;25.73;54.80;95997.84;5104919;28;20486;-76
2022/07/04 07:46:00;;;;;;;2.85;2.25;;;;;;;26.12;55.34;96004.72;5092408;28;20086;-75
2022/07/04 07:48:27;;;;;;;3.08;2.25;;;;;;;26.68;52.42;95991.69;5079287;28;20020;-73
2022/07/04 07:50:52;;;;;;;2.83;2.13;;;;;;;27.16;51.11;95992.44;5078536;28;20028;-76
2022/07/04 07:53:18;;;;;;;2.65;1.88;;;;;;;27.50;48.35;95991.72;5089603;28;20544;-74
2022/07/04 07:55:43;;;;;;;5.75;2.00;;;;;;;26.84;50.11;95997.44;5088119;28;20012;-75
2022/07/04 07:58:09;;;;;;;3.78;1.67;;;;;;;25.97;52.19;95989.00;5104023;28;20019;-75
2022/07/04 08:00:34;;;;;;;2.03;1.83;;;;;;;25.45;54.08;96001.97;5108650;28;20016;-75
2022/07/04 08:05:43;;;;;;;3.78;1.95;;;;;;;25.35;55.49;96004.41;5078949;28;20074;-75
2022/07/04 08:08:10;;;;;;;2.03;1.92;;;;;;;25.41;55.23;96000.78;5077682;28;20052;-75
2022/07/04 08:10:37;;;;;;;5.50;2.20;;;;;;;25.38;55.09;96001.25;5084065;28;20024;-75
2022/07/04 08:13:03;;;;;;;1.90;1.63;;;;;;;25.09;56.36;96000.19;5083906;28;20028;-75
2022/07/04 08:15:28;;;;;;;2.05;1.85;;;;;;;24.81;57.20;96004.25;5075379;28;20031;-75
2022/07/04 08:17:54;;;;;;;2.78;2.05;;;;;;;24.79;57.58;96007.16;5079763;28;20040;-74
2022/07/04 08:20:19;;;;;;;3.17;2.10;;;;;;;25.25;56.68;95998.72;5090619;28;20956;-75
2022/07/04 08:22:45;;;;;;;3.33;2.20;;;;;;;26.02;54.53;95998.03;5089273;28;20055;-75
2022/07/04 08:25:10;;;;;;;3.28;2.20;;;;;;;26.08;52.45;95995.47;5082121;28;20496;-75
2022/07/04 08:27:35;;;;;;;3.67;2.30;;;;;;;26.26;52.87;96006.19;5085460;28;20475;-75
2022/07/04 08:30:01;;;;;;;2.65;2.20;;;;;;;27.02;51.04;96008.13;5082360;28;20055;-74
2022/07/04 08:32:26;;;;;;;3.30;1.70;;;;;;;26.80;50.98;96002.47;5088826;28;20021;-76
2022/07/04 08:34:52;;;;;;;2.28;2.08;;;;;;;26.38;51.54;96006.19;5089019;28;20060;-75
2022/07/04 08:37:17;;;;;;;2.45;2.25;;;;;;;26.14;51.74;96002.59;5076374;28;20089;-75
2022/07/04 08:39:43;;;;;;;1.88;1.75;;;;;;;26.23;53.69;96003.94;5080885;28;20032;-75
2022/07/04 08:42:15;;;;;;;3.45;2.00;;;;;;;26.94;51.59;95996.84;5089171;28;20515;-75
2022/07/04 08:44:46;;;;;;;4.10;2.05;;;;;;;27.71;50.19;95995.63;5084724;28;20398;-75
2022/07/04 08:47:20;;;;;;;2.15;2.05;;;;;;;28.14;47.73;95995.22;5105420;28;20038;-74
2022/07/04 08:50:33;;;;;;;2.30;2.10;;;;;;;28.30;48.33;95988.22;5089673;28;20025;-75
2022/07/04 08:53:07;;;;;;;2.45;2.08;;;;;;;28.92;47.41;95989.03;5073336;28;20031;-76
2022/07/04 08:58:31;;;;;;;3.22;2.10;;;;;;;29.05;46.00;95993.25;5085422;28;20123;-75
2022/07/04 09:01:07;;;;;;;2.22;2.00;;;;;;;29.09;46.66;95991.72;5091813;28;20842;-75
2022/07/04 09:03:33;;;;;;;6.45;2.28;;;;;;;29.64;44.84;95988.25;5079876;28;20108;-75
2022/07/04 09:05:59;;;;;;;1.88;1.75;;;;;;;29.84;43.86;95982.16;5079214;28;20036;-75
2022/07/04 09:08:26;;;;;;;4.97;2.15;;;;;;;30.26;41.96;95983.31;5088175;28;20051;-76
2022/07/04 09:10:52;;;;;;;3.25;1.85;;;;;;;30.57;41.92;95987.03;5093215;28;20099;-75
2022/07/04 09:13:19;;;;;;;6.57;2.20;;;;;;;31.11;40.05;95985.16;5094264;28;20030;-76
2022/07/04 09:15:46;;;;;;;4.18;1.90;;;;;;;30.91;42.02;95971.50;5106375;28;20105;-77
2022/07/04 09:18:30;;;;;;;2.63;1.83;;;;;;;30.43;42.17;95975.03;5080264;28;20038;-77
2022/07/04 09:21:00;;;;;;;1.98;1.80;;;;;;;30.36;40.73;95988.84;5076010;28;20017;-75
2022/07/04 09:23:48;;;;;;;4.05;2.42;;;;;;;29.30;42.39;95989.22;5097774;28;20062;-77
2022/07/04 09:26:15;;;;;;;1.98;1.77;;;;;;;28.40;45.06;95982.94;5089292;28;20028;-77
2022/07/04 09:28:58;;;;;;;3.10;2.20;;;;;;;27.34;49.14;95987.09;5083200;28;20047;-77
2022/07/04 09:31:26;;;;;;;2.67;1.73;;;;;;;27.50;47.21;95990.88;5089753;28;20036;-76
2022/07/04 09:33:54;;;;;;;5.72;2.22;;;;;;;26.91;50.02;95995.44;5092038;28;20112;-76
2022/07/04 09:36:22;;;;;;;1.98;1.85;;;;;;;27.35;48.57;96005.78;5090524;28;20035;-76
2022/07/04 09:39:18;;;;;;;5.05;2.42;;;;;;;26.90;50.85;96001.09;5071148;28;20028;-76
2022/07/04 09:41:51;;;;;;;2.78;2.40;;;;;;;27.45;49.68;95997.03;5079432;28;20445;-77
2022/07/04 09:44:17;;;;;;;2.85;2.58;;;;;;;27.37;49.42;96009.06;5095872;28;20114;-77
2022/07/04 09:46:42;;;;;;;3.17;1.95;;;;;;;27.84;47.64;96001.78;5110692;28;20027;-76
2022/07/04 09:49:10;;;;;;;3.67;2.33;;;;;;;27.91;48.02;96013.25;5077348;28;20120;-77
2022/07/04 09:51:40;;;;;;;2.65;2.40;;;;;;;27.55;47.77;96018.88;5090681;28;20051;-78
2022/07/04 09:54:21;;;;;;;3.33;2.35;;;;;;;27.28;47.35;96029.41;5071156;28;20464;-77
2022/07/04 09:56:49;;;;;;;3.80;2.42;;;;;;;26.84;48.01;96044.16;5092101;28;20044;-78
2022/07/04 09:59:15;;;;;;;2.45;2.00;;;;;;;26.82;48.77;96051.66;5092652;28;20016;-80
2022/07/04 10:01:41;;;;;;;2.15;1.98;;;;;;;26.76;48.08;96076.94;5079964;28;20027;-76
2022/07/04 10:04:08;;;;;;;3.08;2.42;;;;;;;26.01;50.23;96081.88;5085351;28;20529;-77
2022/07/04 10:06:37;;;;;;;4.93;2.30;;;;;;;26.02;51.78;96089.75;5090818;28;20500;-78
2022/07/04 10:09:09;;;;;;;3.40;2.10;;;;;;;25.78;50.68;96093.44;5085306;28;20028;-79
2022/07/04 10:11:36;;;;;;;7.93;2.58;;;;;;;25.30;52.59;96091.28;5090510;28;20020;-80
2022/07/04 10:14:04;;;;;;;5.07;2.47;;;;;;;25.58;53.10;96102.59;5100089;28;20027;-79
2022/07/04 10:16:31;;;;;;;4.93;2.40;;;;;;;25.50;53.63;96094.81;5113384;28;20027;-78
2022/07/04 10:18:57;;;;;;;2.28;2.15;;;;;;;25.22;54.85;96091.63;5112937;28;20077;-79
2022/07/04 10:21:23;;;;;;;3.40;2.70;;;;;;;25.47;54.21;96085.31;5112930;28;20020;-80
2022/07/04 10:23:51;;;;;;;5.57;2.92;;;;;;;25.43;56.03;96087.59;5112566;28;20024;-80
2022/07/04 10:26:22;;;;;;;3.92;2.60;;;;;;;25.55;55.81;96082.31;5100307;28;20073;-78
2022/07/04 10:28:49;;;;;;;8.38;3.08;;;;;;;25.58;56.43;96087.22;5106830;28;20437;-77
2022/07/04 10:31:16;;;;;;;3.53;2.40;;;;;;;26.03;54.67;96066.28;5113130;28;20020;-76
2022/07/04 10:33:43;;;;;;;7.18;2.70;;;;;;;26.45;51.66;96062.75;5097279;28;20023;-77
2022/07/04 10:36:29;;;;;;;2.70;2.33;;;;;;;26.15;51.82;96053.66;5088745;28;20028;-76
2022/07/04 10:38:58;;;;;;;6.68;2.35;;;;;;;25.91;55.51;96038.47;5107384;28;20035;-73
2022/07/04 10:41:25;;;;;;;2.40;2.20;;;;;;;25.93;54.63;96026.38;5109687;28;20106;-73
2022/07/04 10:43:52;;;;;;;2.90;2.63;;;;;;;26.52;53.67;96014.84;5108744;28;20019;-73
2022/07/04 10:46:23;;;;;;;4.50;2.58;;;;;;;27.49;51.50;96005.47;5110437;28;20027;-74
2022/07/04 10:48:54;;;;;;;6.00;2.40;;;;;;;28.25;49.79;95994.34;5107979;28;20673;-73
2022/07/04 10:52:04;;;;;;;4.10;2.15;;;;;;;29.02;44.87;95977.53;5096569;28;20024;-76
2022/07/04 10:54:36;;;;;;;4.38;2.42;;;;;;;29.82;45.53;95968.03;5065655;28;20041;-76
2022/07/04 10:57:13;;;;;;;3.17;2.10;;;;;;;30.39;44.02;95954.88;5089729;28;20050;-76
2022/07/04 10:59:40;;;;;;;3.03;2.13;;;;;;;30.45;41.70;95934.84;5087881;28;20119;-75
2022/07/04 11:02:05;;;;;;;3.47;2.17;;;;;;;31.11;38.68;95919.09;5081991;28;20027;-75
2022/07/04 11:04:50;;;;;;;3.57;2.07;;;;;;;31.40;39.37;95907.78;5090424;28;20032;-75
2022/07/04 11:07:16;;;;;;;8.63;1.88;;;;;;;31.70;38.17;95903.41;5101261;28;20300;-78
2022/07/04 11:09:45;;;;;;;2.88;2.03;;;;;;;31.62;38.55;95893.91;5104593;28;20094;-75
2022/07/04 11:12:14;;;;;;;4.45;2.00;;;;;;;31.51;39.12;95886.84;5086031;28;20042;-72
2022/07/04 11:14:47;;;;;;;5.90;1.90;;;;;;;31.52;39.43;95883.03;5104325;28;20023;-73
2022/07/04 11:17:15;;;;;;;2.95;2.00;;;;;;;31.28;39.62;95872.66;5111631;28;20039;-79
2022/07/04 11:19:41;;;;;;;1.85;1.77;;;;;;;31.59;39.44;95870.75;5111854;28;20051;-75
2022/07/04 11:22:10;;;;;;;4.72;2.00;;;;;;;31.65;38.28;95866.13;5110580;28;20034;-74
2022/07/04 11:24:36;;;;;;;2.00;1.90;;;;;;;31.64;38.56;95859.06;5111670;28;20510;-74
2022/07/04 11:27:02;;;;;;;1.90;1.80;;;;;;;31.89;39.40;95862.88;5111417;28;20023;-74
2022/07/04 11:29:29;;;;;;;3.35;2.13;;;;;;;32.25;37.80;95870.97;5111664;28;20028;-74
2022/07/04 11:31:56;;;;;;;2.60;1.80;;;;;;;33.04;36.70;95871.50;5101456;28;20558;-78
2022/07/04 11:34:22;;;;;;;3.97;2.00;;;;;;;32.21;37.80;95867.19;5096923;28;20036;-73
2022/07/04 11:36:50;;;;;;;2.30;2.10;;;;;;;31.99;38.94;95876.47;5098429;28;20027;-72
2022/07/04 11:39:19;;;;;;;4.35;2.38;;;;;;;32.35;38.44;95880.22;5101710;28;20036;-73
2022/07/04 11:47:23;;;;;;;3.40;2.40;;;;;;;31.95;39.75;95888.19;5093128;28;20106;-73
2022/07/04 11:49:52;;;;;;;4.13;2.45;;;;;;;32.28;38.87;95894.94;5090200;28;20024;-73
2022/07/04 11:52:42;;;;;;;2.47;2.28;;;;;;;32.22;39.15;95884.31;5086452;28;20392;-73
2022/07/04 11:55:10;;;;;;;3.28;2.75;;;;;;;32.66;38.76;95883.66;5076059;28;20087;-71